createdAt,value
2019-04-04T00:01:39.048Z,9.65
2019-04-04T00:04:07.360Z,9.47
2019-04-04T00:06:35.674Z,10.30
2019-04-04T00:09:06.864Z,12.60
2019-04-04T00:11:36.910Z,10.32
2019-04-04T00:14:05.198Z,9.88
2019-04-04T00:16:33.512Z,9.58
2019-04-04T00:19:01.887Z,10.58
2019-04-04T00:21:30.188Z,9.83
2019-04-04T00:23:58.466Z,11.53
2019-04-04T00:26:26.763Z,9.30
2019-04-04T00:28:55.057Z,10.28
2019-04-04T00:31:23.340Z,11.40
2019-04-04T00:33:51.654Z,11.73
2019-04-04T00:36:20.195Z,9.45
2019-04-04T00:38:48.513Z,12.60
2019-04-04T00:41:17.053Z,11.40
2019-04-04T00:43:45.379Z,9.75
2019-04-04T00:46:13.652Z,11.05
2019-04-04T00:48:41.962Z,10.20
2019-04-04T00:51:10.292Z,9.70
2019-04-04T00:53:38.691Z,10.63
2019-04-04T00:56:07.001Z,11.65
2019-04-04T00:58:35.291Z,10.65
2019-04-04T01:01:03.657Z,9.68
2019-04-04T01:03:31.951Z,12.70
2019-04-04T01:06:02.675Z,12.00
2019-04-04T01:08:30.274Z,12.13
2019-04-04T01:10:58.651Z,11.45
2019-04-04T01:13:27.697Z,13.20
2019-04-04T01:15:56.173Z,12.43
2019-04-04T01:18:24.463Z,13.10
2019-04-04T01:20:52.744Z,13.47
2019-04-04T01:23:21.047Z,13.13
2019-04-04T01:25:49.345Z,12.80
2019-04-04T01:28:17.671Z,13.62
2019-04-04T01:30:45.987Z,14.10
2019-04-04T01:33:14.267Z,13.48
2019-04-04T01:35:42.665Z,12.40
2019-04-04T01:38:10.948Z,15.68
2019-04-04T01:40:39.239Z,13.40
2019-04-04T01:43:09.232Z,15.75
2019-04-04T01:45:37.614Z,13.58
2019-04-04T01:48:05.924Z,13.32
2019-04-04T01:50:34.236Z,14.30
2019-04-04T01:53:02.527Z,15.50
2019-04-04T01:55:30.831Z,13.43
2019-04-04T01:57:59.115Z,13.85
2019-04-04T02:00:27.831Z,14.10
2019-04-04T02:02:56.133Z,14.53
2019-04-04T02:05:26.707Z,12.10
2019-04-04T02:07:54.518Z,14.47
2019-04-04T02:10:22.873Z,12.58
2019-04-04T02:12:51.176Z,15.38
2019-04-04T02:15:19.467Z,13.25
2019-04-04T02:17:48.042Z,14.55
2019-04-04T02:20:16.431Z,13.43
2019-04-04T02:22:44.782Z,15.50
2019-04-04T02:25:13.281Z,15.15
2019-04-04T02:27:41.812Z,15.65
2019-04-04T02:30:14.637Z,16.67
2019-04-04T02:32:40.412Z,15.32
2019-04-04T02:35:10.771Z,13.35
2019-04-04T02:37:38.899Z,13.00
2019-04-04T02:40:08.985Z,13.40
2019-04-04T02:42:38.086Z,14.40
2019-04-04T02:45:06.906Z,13.93
2019-04-04T02:47:35.210Z,13.00
2019-04-04T02:50:05.242Z,16.52
2019-04-04T02:52:33.586Z,14.60
2019-04-04T02:55:01.870Z,15.83
2019-04-04T02:57:30.154Z,16.95
2019-04-04T02:59:58.554Z,15.27
2019-04-04T03:02:27.077Z,15.38
2019-04-04T03:04:55.430Z,14.55
2019-04-04T03:07:23.998Z,13.80
2019-04-04T03:09:52.307Z,15.38
2019-04-04T03:12:20.626Z,15.70
2019-04-04T03:14:50.750Z,16.45
2019-04-04T03:17:19.244Z,22.35
2019-04-04T03:19:47.558Z,19.33
2019-04-04T03:22:15.863Z,17.15
2019-04-04T03:24:45.135Z,16.32
2019-04-04T03:27:13.999Z,13.65
2019-04-04T03:29:42.342Z,16.15
2019-04-04T03:32:14.608Z,14.80
2019-04-04T03:34:47.870Z,17.12
2019-04-04T03:37:12.399Z,18.30
2019-04-04T03:39:40.970Z,18.02
2019-04-04T03:42:09.293Z,17.15
2019-04-04T03:44:37.600Z,15.10
2019-04-04T03:47:09.865Z,19.00
2019-04-04T03:49:36.682Z,19.40
2019-04-04T03:52:04.998Z,17.80
2019-04-04T03:54:33.625Z,18.37
2019-04-04T03:57:01.933Z,18.35
2019-04-04T03:59:32.274Z,17.05
2019-04-04T04:02:00.257Z,18.52
2019-04-04T04:04:28.590Z,17.92
2019-04-04T04:06:56.906Z,19.70
2019-04-04T04:09:26.342Z,16.50
2019-04-04T04:11:55.210Z,17.17
2019-04-04T04:14:23.531Z,19.80
2019-04-04T04:16:51.824Z,17.77
2019-04-04T04:19:24.014Z,18.12
2019-04-04T04:21:50.153Z,18.70
2019-04-04T04:24:18.491Z,19.00
2019-04-04T04:26:46.843Z,19.80
2019-04-04T04:29:15.439Z,17.48
2019-04-04T04:31:48.277Z,18.57
2019-04-04T04:34:13.974Z,21.52
2019-04-04T04:36:42.269Z,20.57
2019-04-04T04:39:10.607Z,32.28
2019-04-04T04:41:38.890Z,18.30
2019-04-04T04:44:07.238Z,19.30
2019-04-04T04:46:35.844Z,18.70
2019-04-04T04:49:04.428Z,19.17
2019-04-04T04:51:33.109Z,21.55
2019-04-04T04:54:01.422Z,21.12
2019-04-04T04:56:31.386Z,20.40
2019-04-04T04:58:59.766Z,17.20
2019-04-04T05:01:28.347Z,16.17
2019-04-04T05:03:57.264Z,20.12
2019-04-04T05:06:25.651Z,16.90
2019-04-04T05:08:53.928Z,18.62
2019-04-04T05:11:22.236Z,17.75
2019-04-04T05:13:50.525Z,21.00
2019-04-04T05:16:18.845Z,23.30
2019-04-04T05:18:48.212Z,18.27
2019-04-04T05:21:24.820Z,20.23
2019-04-04T05:23:47.600Z,19.30
2019-04-04T05:26:16.092Z,19.27
2019-04-04T05:28:44.396Z,20.10
2019-04-04T05:31:12.733Z,21.70
2019-04-04T05:33:41.022Z,25.70
2019-04-04T05:36:09.372Z,20.82
2019-04-04T05:38:37.663Z,25.10
2019-04-04T05:41:06.039Z,24.00
2019-04-04T05:43:35.264Z,20.55
2019-04-04T05:46:04.788Z,23.43
2019-04-04T05:48:33.096Z,21.55
2019-04-04T05:51:01.764Z,26.27
2019-04-04T05:53:30.061Z,23.15
2019-04-04T05:55:58.420Z,22.27
2019-04-04T05:58:26.730Z,23.18
2019-04-04T06:00:57.747Z,24.05
2019-04-04T06:03:25.417Z,22.40
2019-04-04T06:05:53.712Z,23.95
2019-04-04T06:08:22.503Z,22.75
2019-04-04T06:10:50.925Z,22.17
2019-04-04T06:13:22.140Z,23.95
2019-04-04T06:15:49.179Z,24.70
2019-04-04T06:18:17.498Z,23.67
2019-04-04T06:20:48.361Z,20.97
2019-04-04T06:23:16.150Z,21.25
2019-04-04T06:25:44.614Z,24.30
2019-04-04T06:28:12.933Z,23.10
2019-04-04T06:30:43.502Z,24.40
2019-04-04T06:33:11.289Z,20.70
2019-04-04T06:35:40.115Z,21.25
2019-04-04T06:38:08.547Z,22.15
2019-04-04T06:40:37.146Z,22.35
2019-04-04T06:43:10.304Z,22.30
2019-04-04T06:45:35.554Z,23.75
2019-04-04T06:48:03.970Z,23.60
2019-04-04T06:50:32.270Z,23.87
2019-04-04T06:53:01.177Z,24.07
2019-04-04T06:55:29.745Z,24.53
2019-04-04T06:57:58.310Z,22.75
2019-04-04T07:00:27.032Z,23.42
2019-04-04T07:02:56.300Z,25.00
2019-04-04T07:05:24.758Z,24.40
2019-04-04T07:07:53.112Z,23.32
2019-04-04T07:10:22.103Z,23.47
2019-04-04T07:12:50.506Z,24.60
2019-04-04T07:15:18.784Z,22.50
2019-04-04T07:17:47.098Z,25.32
2019-04-04T07:20:17.090Z,25.97
2019-04-04T07:22:45.607Z,28.05
2019-04-04T07:25:14.191Z,22.62
2019-04-04T07:27:42.981Z,28.20
2019-04-04T07:30:11.747Z,26.70
2019-04-04T07:32:41.559Z,25.15
2019-04-04T07:35:10.132Z,27.80
2019-04-04T07:37:38.445Z,28.57
2019-04-04T07:40:06.968Z,24.90
2019-04-04T07:42:35.285Z,29.57
2019-04-04T07:45:06.291Z,23.25
2019-04-04T07:47:34.605Z,26.10
2019-04-04T07:50:02.906Z,27.85
2019-04-04T07:52:33.160Z,20.35
2019-04-04T07:55:01.928Z,23.75
2019-04-04T07:57:30.526Z,22.30
2019-04-04T07:59:58.867Z,29.18
2019-04-04T08:02:27.163Z,26.12
2019-04-04T08:04:55.823Z,26.95
2019-04-04T08:07:24.294Z,29.35
2019-04-04T08:09:52.857Z,26.55
2019-04-04T08:12:21.156Z,28.55
2019-04-04T08:14:49.459Z,30.95
2019-04-04T08:17:19.015Z,31.77
2019-04-04T08:19:59.113Z,30.45
2019-04-04T08:22:17.945Z,31.25
2019-04-04T08:24:46.350Z,31.52
2019-04-04T08:27:14.736Z,30.12
2019-04-04T08:29:43.041Z,27.73
2019-04-04T08:32:11.584Z,29.32
2019-04-04T08:34:40.286Z,30.90
2019-04-04T08:37:09.040Z,29.30
2019-04-04T08:39:37.355Z,26.62
2019-04-04T08:42:05.680Z,28.17
2019-04-04T08:44:33.985Z,26.50
2019-04-04T08:47:02.267Z,26.33
2019-04-04T08:49:30.834Z,28.45
2019-04-04T08:51:59.175Z,30.17
2019-04-04T08:54:27.468Z,31.93
2019-04-04T08:56:55.799Z,28.15
2019-04-04T08:59:24.085Z,30.00
2019-04-04T09:01:52.401Z,31.65
2019-04-04T09:04:23.918Z,29.45
2019-04-04T09:06:51.142Z,30.30
2019-04-04T09:09:19.442Z,29.82
2019-04-04T09:11:48.078Z,29.98
2019-04-04T09:14:16.674Z,29.02
2019-04-04T09:16:44.996Z,27.80
2019-04-04T09:19:13.276Z,26.93
2019-04-04T09:21:41.591Z,26.77
2019-04-04T09:24:09.996Z,23.57
2019-04-04T09:26:38.296Z,28.00
2019-04-04T09:29:06.605Z,28.05
2019-04-04T09:31:35.215Z,32.20
2019-04-04T09:34:03.540Z,25.60
2019-04-04T09:36:31.842Z,22.17
2019-04-04T09:39:00.156Z,23.52
2019-04-04T09:41:28.440Z,23.35
2019-04-04T09:43:57.137Z,21.50
2019-04-04T09:46:25.445Z,20.97
2019-04-04T09:48:53.741Z,23.75
2019-04-04T09:51:22.023Z,23.90
2019-04-04T09:53:53.374Z,23.00
2019-04-04T09:56:20.679Z,25.35
2019-04-04T09:58:48.980Z,24.57
2019-04-04T10:01:17.277Z,23.98
2019-04-04T10:03:45.588Z,25.87
2019-04-04T10:06:13.883Z,23.55
2019-04-04T10:08:42.253Z,25.72
2019-04-04T10:11:10.570Z,26.33
2019-04-04T10:13:38.867Z,24.15
2019-04-04T10:16:07.313Z,23.77
2019-04-04T10:18:35.549Z,27.20
2019-04-04T10:21:11.921Z,23.20
2019-04-04T10:23:34.235Z,26.50
2019-04-04T10:26:02.619Z,24.10
2019-04-04T10:28:30.940Z,24.90
2019-04-04T10:30:59.263Z,25.75
2019-04-04T10:33:28.113Z,25.60
2019-04-04T10:35:56.494Z,25.05
2019-04-04T10:38:24.814Z,26.90
2019-04-04T10:40:53.093Z,27.00
2019-04-04T10:43:21.413Z,29.95
2019-04-04T10:45:49.698Z,27.80
2019-04-04T10:48:18.326Z,26.60
2019-04-04T10:50:46.629Z,28.03
2019-04-04T10:53:14.947Z,22.47
2019-04-04T10:55:43.223Z,23.42
2019-04-04T10:58:11.897Z,14.98
2019-04-04T11:00:40.320Z,14.58
2019-04-04T11:03:09.017Z,19.37
2019-04-04T11:05:37.599Z,22.70
2019-04-04T11:08:05.928Z,19.90
2019-04-04T11:10:34.567Z,20.30
2019-04-04T11:13:03.213Z,20.45
2019-04-04T11:15:31.496Z,20.75
2019-04-04T11:17:59.812Z,22.67
2019-04-04T11:20:28.111Z,23.18
2019-04-04T11:22:56.426Z,18.87
2019-04-04T11:25:25.031Z,15.20
2019-04-04T11:27:54.164Z,18.17
2019-04-04T11:30:22.532Z,21.60
2019-04-04T11:32:51.098Z,16.97
2019-04-04T11:35:19.715Z,20.27
2019-04-04T11:37:48.087Z,20.88
2019-04-04T11:40:16.423Z,20.95
2019-04-04T11:42:44.700Z,16.25
2019-04-04T11:45:13.312Z,17.50
2019-04-04T11:47:41.610Z,16.93
2019-04-04T11:50:10.258Z,16.85
2019-04-04T11:52:38.563Z,16.70
2019-04-04T11:55:07.133Z,16.25
2019-04-04T11:57:35.525Z,17.42
2019-04-04T12:00:06.423Z,16.87
2019-04-04T12:02:34.727Z,20.00
2019-04-04T12:05:03.024Z,18.35
2019-04-04T12:07:31.334Z,16.37
2019-04-04T12:10:07.239Z,18.15
2019-04-04T12:12:29.672Z,15.83
2019-04-04T12:14:58.059Z,17.27
2019-04-04T12:17:26.537Z,17.40
2019-04-04T12:19:54.831Z,14.00
2019-04-04T12:22:23.182Z,16.95
2019-04-04T12:24:51.477Z,14.35
2019-04-04T12:27:20.136Z,14.93
2019-04-04T12:29:48.722Z,15.18
2019-04-04T12:32:17.355Z,15.08
2019-04-04T12:34:45.652Z,16.07
2019-04-04T12:37:14.185Z,13.78
2019-04-04T12:39:44.415Z,13.48
2019-04-04T12:42:12.962Z,13.00
2019-04-04T12:44:41.267Z,15.72
2019-04-04T12:47:09.826Z,14.83
2019-04-04T12:49:38.224Z,13.93
2019-04-04T12:52:06.781Z,14.93
2019-04-04T12:54:35.111Z,14.70
2019-04-04T12:57:03.404Z,12.53
2019-04-04T12:59:31.746Z,13.28
2019-04-04T13:02:00.503Z,13.70
2019-04-04T13:04:31.879Z,11.90
2019-04-04T13:06:58.829Z,11.10
2019-04-04T13:09:27.227Z,10.28
2019-04-04T13:11:55.677Z,9.45
2019-04-04T13:14:23.977Z,9.70
2019-04-04T13:16:52.269Z,11.35
2019-04-04T13:19:20.570Z,9.20
2019-04-04T13:21:48.888Z,10.90
2019-04-04T13:24:17.183Z,10.45
2019-04-04T13:26:45.551Z,8.18
2019-04-04T13:29:13.954Z,6.60
2019-04-04T13:31:42.242Z,7.75
2019-04-04T13:34:10.543Z,6.95
2019-04-04T13:36:38.827Z,8.98
2019-04-04T13:39:09.840Z,8.30
2019-04-04T13:41:38.286Z,5.45
2019-04-04T13:44:06.561Z,6.30
2019-04-04T13:46:35.105Z,5.50
2019-04-04T13:49:03.687Z,6.42
2019-04-04T13:51:32.111Z,4.90
2019-04-04T13:54:00.385Z,5.90
2019-04-04T13:56:29.377Z,7.10
2019-04-04T13:59:01.138Z,6.28
2019-04-04T14:01:28.067Z,7.22
2019-04-04T14:03:56.833Z,7.15
2019-04-04T14:06:25.139Z,6.87
2019-04-04T14:08:53.436Z,7.80
2019-04-04T14:11:22.080Z,8.05
2019-04-04T14:13:50.392Z,7.70
2019-04-04T14:16:19.034Z,6.80
2019-04-04T14:18:47.629Z,7.15
2019-04-04T14:21:16.298Z,8.95
2019-04-04T14:23:45.390Z,8.37
2019-04-04T14:26:13.810Z,8.60
2019-04-04T14:28:42.117Z,7.33
2019-04-04T14:31:10.399Z,8.93
2019-04-04T14:33:39.018Z,8.03
2019-04-04T14:36:07.301Z,7.60
2019-04-04T14:38:35.615Z,6.05
2019-04-04T14:41:11.038Z,7.37
2019-04-04T14:43:34.237Z,6.30
2019-04-04T14:46:02.782Z,6.40
2019-04-04T14:48:31.444Z,8.68
2019-04-04T14:50:59.737Z,6.33
2019-04-04T14:53:28.030Z,6.80
2019-04-04T14:55:56.321Z,5.83
2019-04-04T14:58:24.954Z,6.70
2019-04-04T15:00:53.478Z,6.15
2019-04-04T15:03:21.867Z,5.95
2019-04-04T15:05:50.147Z,5.40
2019-04-04T15:08:18.450Z,6.03
2019-04-04T15:10:46.763Z,6.12
2019-04-04T15:13:15.168Z,5.33
2019-04-04T15:16:03.189Z,5.17
2019-04-04T15:18:31.473Z,5.28
2019-04-04T15:20:59.783Z,5.40
2019-04-04T15:23:28.079Z,6.08
2019-04-04T15:25:56.379Z,5.30
2019-04-04T15:28:26.081Z,7.10
2019-04-04T15:30:54.533Z,4.58
2019-04-04T15:33:22.821Z,5.40
2019-04-04T15:35:51.111Z,4.90
2019-04-04T15:38:19.411Z,4.90
2019-04-04T15:40:47.697Z,4.40
2019-04-04T15:43:16.166Z,6.05
2019-04-04T15:45:44.474Z,5.60
2019-04-04T15:48:13.217Z,8.33
2019-04-04T15:50:41.797Z,5.50
2019-04-04T15:53:10.373Z,6.55
2019-04-04T15:55:38.686Z,5.95
2019-04-04T15:58:07.063Z,4.17
2019-04-04T16:00:35.458Z,5.50
2019-04-04T16:03:04.120Z,4.67
2019-04-04T16:05:32.900Z,5.13
2019-04-04T16:08:01.251Z,5.22
2019-04-04T16:10:29.478Z,5.28
2019-04-04T16:12:58.121Z,6.25
2019-04-04T16:15:26.485Z,5.20
2019-04-04T16:17:55.191Z,8.60
2019-04-04T16:20:23.499Z,5.90
2019-04-04T16:22:51.808Z,6.03
2019-04-04T16:25:20.094Z,5.80
2019-04-04T16:27:48.396Z,5.70
2019-04-04T16:30:16.789Z,4.97
2019-04-04T16:32:45.337Z,4.90
2019-04-04T16:35:14.047Z,8.47
2019-04-04T16:37:42.325Z,4.58
2019-04-04T16:40:10.993Z,6.35
2019-04-04T16:42:39.284Z,7.00
2019-04-04T16:45:08.025Z,4.90
2019-04-04T16:47:36.319Z,5.85
2019-04-04T16:50:06.202Z,6.20
2019-04-04T16:52:34.848Z,5.80
2019-04-04T16:55:03.922Z,6.00
2019-04-04T16:57:32.519Z,6.08
2019-04-04T17:00:00.806Z,8.43
2019-04-04T17:02:29.360Z,7.70
2019-04-04T17:04:57.643Z,7.47
2019-04-04T17:07:26.194Z,9.13
2019-04-04T17:09:54.497Z,8.28
2019-04-04T17:12:22.795Z,6.45
2019-04-04T17:14:51.086Z,9.53
2019-04-04T17:17:19.387Z,14.13
2019-04-04T17:19:47.931Z,10.85
2019-04-04T17:22:16.249Z,25.45
2019-04-04T17:24:45.545Z,15.05
2019-04-04T17:27:13.837Z,17.00
2019-04-04T17:29:42.149Z,10.20
2019-04-04T17:32:10.871Z,9.88
2019-04-04T17:34:39.875Z,8.20
2019-04-04T17:37:08.189Z,8.85
2019-04-04T17:39:36.539Z,9.40
2019-04-04T17:42:04.874Z,10.65
2019-04-04T17:44:33.192Z,9.43
2019-04-04T17:47:02.134Z,8.78
2019-04-04T17:49:30.518Z,8.00
2019-04-04T17:51:58.791Z,10.58
2019-04-04T17:54:27.499Z,11.05
2019-04-04T17:56:57.018Z,9.55
2019-04-04T17:59:25.397Z,9.40
2019-04-04T18:01:53.671Z,8.50
2019-04-04T18:04:21.949Z,9.45
2019-04-04T18:06:50.273Z,9.88
2019-04-04T18:09:30.845Z,9.88
2019-04-04T18:11:48.850Z,10.18
2019-04-04T18:14:17.169Z,10.78
2019-04-04T18:16:45.457Z,9.00
2019-04-04T18:19:13.794Z,11.40
2019-04-04T18:21:42.165Z,12.25
2019-04-04T18:24:10.799Z,12.33
2019-04-04T18:26:39.416Z,11.70
2019-04-04T18:29:07.659Z,14.10
2019-04-04T18:31:35.950Z,12.05
2019-04-04T18:34:07.292Z,14.30
2019-04-04T18:36:34.724Z,12.68
2019-04-04T18:39:04.918Z,13.03
2019-04-04T18:41:33.273Z,11.83
2019-04-04T18:44:01.579Z,13.10
2019-04-04T18:46:29.929Z,12.68
2019-04-04T18:48:58.366Z,11.68
2019-04-04T18:51:26.671Z,11.03
2019-04-04T18:53:54.969Z,10.03
2019-04-04T18:56:23.616Z,10.77
2019-04-04T18:58:51.908Z,9.50
2019-04-04T19:01:20.200Z,10.38
2019-04-04T19:03:48.515Z,12.53
2019-04-04T19:06:16.813Z,10.72
2019-04-04T19:08:45.396Z,11.22
2019-04-04T19:11:13.968Z,11.18
2019-04-04T19:13:44.590Z,13.25
2019-04-04T19:16:12.469Z,12.88
2019-04-04T19:18:40.764Z,11.50
2019-04-04T19:21:09.063Z,12.43
2019-04-04T19:23:48.645Z,16.23
2019-04-04T19:26:07.449Z,15.15
2019-04-04T19:28:35.765Z,11.88
2019-04-04T19:31:05.095Z,14.93
2019-04-04T19:33:33.396Z,13.25
2019-04-04T19:36:01.976Z,13.00
2019-04-04T19:38:30.555Z,11.08
2019-04-04T19:40:58.852Z,11.22
2019-04-04T19:43:27.167Z,13.48
2019-04-04T19:45:55.464Z,12.53
2019-04-04T19:48:24.062Z,13.10
2019-04-04T19:50:52.363Z,10.93
2019-04-04T19:53:20.671Z,10.70
2019-04-04T19:55:48.961Z,11.43
2019-04-04T19:58:17.260Z,11.25
2019-04-04T20:00:46.064Z,12.67
2019-04-04T20:03:14.359Z,10.43
2019-04-04T20:05:44.513Z,10.63
2019-04-04T20:08:13.267Z,9.83
2019-04-04T20:10:41.681Z,8.68
2019-04-04T20:13:09.997Z,9.68
2019-04-04T20:15:38.310Z,10.40
2019-04-04T20:18:06.590Z,10.30
2019-04-04T20:20:34.883Z,9.87
2019-04-04T20:23:03.535Z,11.20
2019-04-04T20:25:31.871Z,10.35
2019-04-04T20:28:00.152Z,10.60
2019-04-04T20:30:36.891Z,9.88
2019-04-04T20:33:05.247Z,12.37
2019-04-04T20:35:33.614Z,10.48
2019-04-04T20:38:02.169Z,10.08
2019-04-04T20:40:30.446Z,12.28
2019-04-04T20:42:59.044Z,15.05
2019-04-04T20:45:27.345Z,14.57
2019-04-04T20:47:55.662Z,12.30
2019-04-04T20:50:23.945Z,11.73
2019-04-04T20:52:52.259Z,13.53
2019-04-04T20:55:20.548Z,11.75
2019-04-04T20:57:48.879Z,10.38
2019-04-04T21:00:17.228Z,12.30
2019-04-04T21:02:45.523Z,9.83
2019-04-04T21:05:14.180Z,12.30
2019-04-04T21:07:42.484Z,13.00
2019-04-04T21:10:10.836Z,8.60
2019-04-04T21:12:39.206Z,9.80
2019-04-04T21:15:07.694Z,10.72
2019-04-04T21:17:36.454Z,11.65
2019-04-04T21:20:06.907Z,9.40
2019-04-04T21:22:35.205Z,10.20
2019-04-04T21:25:03.780Z,10.45
2019-04-04T21:27:32.071Z,9.03
2019-04-04T21:30:00.920Z,10.55
2019-04-04T21:32:29.194Z,10.53
2019-04-04T21:34:57.491Z,9.88
2019-04-04T21:37:26.083Z,10.38
2019-04-04T21:39:54.383Z,10.75
2019-04-04T21:42:23.101Z,10.63
2019-04-04T21:44:51.421Z,11.35
2019-04-04T21:47:19.716Z,10.90
2019-04-04T21:49:48.352Z,13.57
2019-04-04T21:52:16.660Z,11.12
2019-04-04T21:54:44.964Z,10.40
2019-04-04T21:57:13.580Z,11.25
2019-04-04T21:59:41.879Z,10.70
2019-04-04T22:02:10.221Z,13.13
2019-04-04T22:04:38.536Z,11.35
2019-04-04T22:07:07.009Z,12.43
2019-04-04T22:09:35.420Z,11.10
2019-04-04T22:12:04.095Z,11.40
2019-04-04T22:14:32.396Z,10.85
2019-04-04T22:17:01.046Z,12.50
2019-04-04T22:19:29.367Z,12.50
2019-04-04T22:21:57.758Z,12.00
2019-04-04T22:24:26.087Z,14.53
2019-04-04T22:26:54.392Z,11.83
2019-04-04T22:29:22.748Z,11.03
2019-04-04T22:31:51.049Z,11.73
2019-04-04T22:34:19.417Z,12.00
2019-04-04T22:36:47.717Z,13.65
2019-04-04T22:39:16.450Z,10.87
2019-04-04T22:41:45.137Z,11.25
2019-04-04T22:44:13.457Z,12.40
2019-04-04T22:46:41.792Z,13.93
2019-04-04T22:49:10.113Z,12.60
2019-04-04T22:51:38.434Z,12.15
2019-04-04T22:54:06.766Z,15.75
2019-04-04T22:56:35.104Z,15.03
2019-04-04T22:59:03.422Z,15.27
2019-04-04T23:01:31.740Z,14.43
2019-04-04T23:04:00.139Z,13.28
2019-04-04T23:06:28.463Z,13.18
2019-04-04T23:08:56.781Z,13.70
2019-04-04T23:11:25.478Z,15.72
2019-04-04T23:13:53.794Z,16.87
2019-04-04T23:16:22.147Z,16.90
2019-04-04T23:18:50.478Z,17.07
2019-04-04T23:21:18.805Z,15.37
2019-04-04T23:23:47.134Z,14.23
2019-04-04T23:26:15.468Z,15.30
2019-04-04T23:28:43.775Z,16.02
2019-04-04T23:31:12.130Z,15.13
2019-04-04T23:33:40.458Z,16.57
2019-04-04T23:36:08.797Z,14.53
2019-04-04T23:38:37.149Z,16.40
2019-04-04T23:41:05.807Z,17.80
2019-04-04T23:43:34.146Z,17.60
2019-04-04T23:46:02.496Z,18.15
2019-04-04T23:48:30.829Z,16.93
2019-04-04T23:50:59.187Z,18.52
2019-04-04T23:53:27.529Z,17.92
2019-04-04T23:55:56.287Z,17.27
2019-04-04T23:58:24.564Z,18.17
